Time;durP1;ratioP1;P1;durP2;ratioP2;P2;SDS_P1;SDS_P2;PMS_P1;PMS_P2;Temp;Humidity;BMP_temperature;BMP_pressure;BME280_temperature;BME280_humidity;BME280_pressure;Samples;Min_cycle;Max_cycle;Signal;HPM_P1;HPM_P2
2024/01/10 00:02:05;;;;;;;3.50;1.58;;;;;;;20.59;29.14;101565.31;7390966;19;20014;-83
2024/01/10 00:04:31;;;;;;;0.22;0.22;;;;;;;20.61;29.01;101566.38;7388197;19;20006;-84
2024/01/10 00:06:57;;;;;;;0.10;0.10;;;;;;;20.75;28.89;101561.81;7389860;19;20010;-83
2024/01/10 00:09:23;;;;;;;0.15;0.15;;;;;;;21.68;28.33;101563.56;7391475;19;20014;-83
2024/01/10 00:11:50;;;;;;;3.40;0.77;;;;;;;22.94;27.48;101547.09;7388221;19;20095;-84
2024/01/10 00:14:16;;;;;;;0.10;0.10;;;;;;;20.97;28.73;101550.63;7390074;19;20022;-84
2024/01/10 00:16:42;;;;;;;0.30;0.25;;;;;;;20.83;29.29;101558.03;7389539;19;20019;-85
2024/01/10 00:19:08;;;;;;;0.10;0.10;;;;;;;21.05;28.54;101544.00;7389195;19;20026;-84
2024/01/10 00:21:36;;;;;;;0.10;0.10;;;;;;;21.26;28.58;101546.69;7389453;19;20010;-84
2024/01/10 00:24:02;;;;;;;0.20;0.20;;;;;;;20.49;29.24;101539.25;7389867;19;20010;-84
2024/01/10 00:26:28;;;;;;;0.75;0.75;;;;;;;20.61;29.01;101540.91;7388885;19;20468;-84
2024/01/10 00:28:54;;;;;;;3.63;0.75;;;;;;;20.70;28.93;101535.03;7392923;19;20078;-84
2024/01/10 00:31:20;;;;;;;0.40;0.17;;;;;;;20.92;28.84;101540.06;7389260;19;20333;-84
2024/01/10 00:33:46;;;;;;;0.28;0.28;;;;;;;20.53;29.09;101534.13;7394396;19;20464;-84
2024/01/10 00:36:12;;;;;;;0.40;0.40;;;;;;;20.39;29.42;101537.91;7388141;19;20006;-83
2024/01/10 00:38:39;;;;;;;0.20;0.20;;;;;;;20.60;29.42;101524.41;7393501;19;20472;-84
2024/01/10 00:41:06;;;;;;;6.70;0.38;;;;;;;20.51;29.28;101524.63;7388640;19;20375;-83
2024/01/10 00:43:32;;;;;;;1.35;0.75;;;;;;;20.51;29.53;101518.94;7388687;19;20463;-83
2024/01/10 00:45:58;;;;;;;0.43;0.30;;;;;;;20.58;29.39;101518.47;7390408;19;20014;-84
2024/01/10 00:48:24;;;;;;;0.20;0.10;;;;;;;20.57;29.30;101522.59;7390055;19;20360;-84
2024/01/10 00:50:50;;;;;;;0.40;0.40;;;;;;;20.50;29.67;101518.16;7387556;19;20007;-84
2024/01/10 00:53:16;;;;;;;0.10;0.10;;;;;;;21.00;28.95;101509.97;7390328;19;20090;-84
2024/01/10 00:55:42;;;;;;;3.63;0.47;;;;;;;20.81;28.79;101503.19;7387917;19;20014;-83
2024/01/10 00:58:08;;;;;;;0.10;0.10;;;;;;;21.04;28.87;101502.81;7397146;19;20018;-83
2024/01/10 01:00:34;;;;;;;0.65;0.65;;;;;;;21.00;29.10;101502.25;7397311;19;20711;-83
2024/01/10 01:03:00;;;;;;;0.10;0.10;;;;;;;21.12;28.81;101517.25;7396279;19;20019;-83
2024/01/10 01:05:27;;;;;;;0.20;0.20;;;;;;;21.41;28.36;101514.00;7395990;19;20484;-84
2024/01/10 01:07:53;;;;;;;11.15;0.73;;;;;;;21.28;28.58;101510.09;7395074;19;20419;-84
2024/01/10 01:10:19;;;;;;;1.05;0.13;;;;;;;23.25;27.12;101499.16;7396846;19;20018;-84
2024/01/10 01:12:45;;;;;;;0.20;0.20;;;;;;;21.72;28.40;101496.78;7392933;19;20356;-84
2024/01/10 01:15:11;;;;;;;0.15;0.15;;;;;;;22.53;27.94;101505.06;7396636;19;20044;-84
2024/01/10 01:17:37;;;;;;;0.30;0.30;;;;;;;24.65;25.98;101499.66;7395619;19;20025;-84
2024/01/10 01:20:04;;;;;;;0.47;0.35;;;;;;;23.65;26.68;101505.44;7395398;19;20024;-84
2024/01/10 01:22:33;;;;;;;0.50;0.50;;;;;;;22.36;27.25;101504.31;7392806;19;20026;-84
2024/01/10 01:24:59;;;;;;;0.10;0.10;;;;;;;21.35;28.14;101501.88;7395119;19;20483;-83
2024/01/10 01:27:25;;;;;;;0.57;0.50;;;;;;;20.97;28.87;101517.41;7395081;19;20018;-84
2024/01/10 01:29:52;;;;;;;0.20;0.20;;;;;;;21.24;28.84;101506.72;7396737;19;20014;-83
2024/01/10 01:32:18;;;;;;;1.20;0.63;;;;;;;20.94;28.96;101512.00;7394203;19;20025;-84
2024/01/10 01:34:44;;;;;;;0.10;0.10;;;;;;;21.02;28.63;101511.00;7393338;19;20010;-87
2024/01/10 01:37:10;;;;;;;0.32;0.32;;;;;;;21.04;28.50;101511.31;7391581;19;20026;-81
2024/01/10 01:39:36;;;;;;;0.10;0.10;;;;;;;21.32;28.42;101510.63;7394755;19;20023;-83
2024/01/10 01:42:04;;;;;;;1.10;0.80;;;;;;;20.92;28.91;101515.31;7392399;19;20013;-84
2024/01/10 01:44:31;;;;;;;0.45;0.20;;;;;;;25.02;25.76;101496.94;7394104;19;20352;-82
2024/01/10 01:46:58;;;;;;;0.10;0.10;;;;;;;27.64;23.68;101492.59;7395798;19;20082;-86
2024/01/10 01:49:25;;;;;;;1.08;0.30;;;;;;;24.94;25.31;101490.31;7396599;19;20018;-86
2024/01/10 01:51:53;;;;;;;0.28;0.28;;;;;;;22.95;26.62;101508.84;7399815;19;20030;-85
2024/01/10 01:54:20;;;;;;;2.35;0.30;;;;;;;23.14;26.70;101506.97;7394224;19;20021;-86
2024/01/10 01:56:46;;;;;;;0.68;0.50;;;;;;;21.50;28.05;101507.34;7393527;19;20015;-86
2024/01/10 01:59:13;;;;;;;1.55;0.77;;;;;;;25.78;24.72;101504.97;7394855;19;20019;-86
2024/01/10 02:01:40;;;;;;;0.45;0.40;;;;;;;26.46;24.23;101489.06;7395715;19;20050;-86
2024/01/10 02:04:06;;;;;;;0.40;0.40;;;;;;;22.21;27.27;101498.16;7395880;19;20010;-86
2024/01/10 02:06:33;;;;;;;0.47;0.47;;;;;;;21.81;27.57;101509.94;7395356;19;20015;-86
2024/01/10 02:08:59;;;;;;;1.27;0.52;;;;;;;21.87;27.77;101499.44;7393243;19;20467;-86
2024/01/10 02:11:25;;;;;;;0.10;0.10;;;;;;;22.49;27.09;101507.41;7395783;19;20031;-86
2024/01/10 02:13:55;;;;;;;1.10;0.28;;;;;;;22.31;27.31;101507.94;7395977;19;20409;-86
2024/01/10 02:16:22;;;;;;;0.38;0.30;;;;;;;23.89;25.96;101505.50;7392401;19;20018;-85
2024/01/10 02:18:49;;;;;;;0.38;0.30;;;;;;;26.93;23.94;101498.56;7395345;19;20025;-85
2024/01/10 02:21:16;;;;;;;0.35;0.32;;;;;;;23.28;26.44;101505.88;7394967;19;20090;-86
2024/01/10 02:23:43;;;;;;;0.70;0.52;;;;;;;24.58;25.71;101503.13;7394114;19;20385;-86
2024/01/10 02:26:09;;;;;;;3.15;0.55;;;;;;;26.47;24.28;101502.00;7393586;19;20039;-86
2024/01/10 02:28:35;;;;;;;0.15;0.15;;;;;;;24.70;25.31;101515.94;7393313;19;20486;-85
2024/01/10 02:31:01;;;;;;;7.20;1.15;;;;;;;24.81;25.48;101519.47;7396770;19;20025;-85
2024/01/10 02:33:27;;;;;;;0.40;0.38;;;;;;;25.00;25.30;101502.41;7398420;19;20366;-86
2024/01/10 02:35:54;;;;;;;0.35;0.20;;;;;;;26.80;23.96;101507.13;7392065;19;20471;-85
2024/01/10 02:38:23;;;;;;;0.85;0.55;;;;;;;26.08;23.76;101504.75;7393657;19;20078;-86
2024/01/10 02:40:49;;;;;;;0.80;0.60;;;;;;;27.00;23.37;101509.34;7394028;19;20021;-86
2024/01/10 02:43:16;;;;;;;0.65;0.50;;;;;;;26.50;23.83;101518.06;7392858;19;20021;-85
2024/01/10 02:45:42;;;;;;;0.20;0.20;;;;;;;26.08;24.03;101507.59;7393602;19;20077;-85
2024/01/10 02:48:08;;;;;;;0.95;0.90;;;;;;;24.77;25.23;101504.75;7394383;19;20015;-86
2024/01/10 02:50:34;;;;;;;3.92;1.65;;;;;;;26.09;24.13;101506.34;7393615;19;20011;-86
2024/01/10 02:53:00;;;;;;;3.67;1.33;;;;;;;23.37;25.63;101516.22;7396223;19;20015;-85
2024/01/10 02:55:27;;;;;;;1.00;0.68;;;;;;;24.14;25.38;101521.41;7392252;19;20441;-86
2024/01/10 02:57:53;;;;;;;0.93;0.60;;;;;;;24.34;25.23;101506.72;7393053;19;20784;-85
2024/01/10 03:00:19;;;;;;;0.40;0.40;;;;;;;24.74;25.13;101505.00;7394049;19;20023;-86
2024/01/10 03:02:46;;;;;;;1.58;1.48;;;;;;;24.99;24.96;101512.28;7395351;19;20097;-86
2024/01/10 03:05:12;;;;;;;4.13;1.17;;;;;;;26.07;24.13;101506.09;7394016;19;20018;-86
2024/01/10 03:07:38;;;;;;;1.73;0.85;;;;;;;27.22;23.12;101501.59;7392711;19;20018;-86
2024/01/10 03:10:04;;;;;;;0.52;0.38;;;;;;;27.19;23.32;101508.41;7392166;19;20082;-86
2024/01/10 03:12:31;;;;;;;0.52;0.17;;;;;;;25.73;24.30;101496.50;7394313;19;20022;-86
2024/01/10 03:14:57;;;;;;;0.77;0.68;;;;;;;25.81;24.29;101508.84;7392024;19;20394;-86
2024/01/10 03:17:23;;;;;;;0.40;0.40;;;;;;;25.74;24.42;101503.75;7391778;19;20026;-86
2024/01/10 03:19:49;;;;;;;1.42;0.82;;;;;;;25.25;24.44;101498.19;7391629;19;20015;-86
2024/01/10 03:22:15;;;;;;;0.77;0.77;;;;;;;25.20;24.32;101496.19;7391755;19;20011;-86
2024/01/10 03:24:41;;;;;;;0.77;0.77;;;;;;;25.58;24.41;101509.16;7392799;19;20010;-86
2024/01/10 03:27:07;;;;;;;1.88;0.52;;;;;;;25.44;24.56;101509.63;7393729;19;20110;-86
2024/01/10 03:29:35;;;;;;;0.70;0.70;;;;;;;27.55;22.86;101509.44;7390889;19;20048;-86
2024/01/10 03:32:01;;;;;;;1.88;1.65;;;;;;;30.26;21.40;101501.00;7389976;19;20089;-86
2024/01/10 03:34:27;;;;;;;0.20;0.20;;;;;;;32.39;20.21;101491.72;7391374;19;20014;-86
2024/01/10 03:36:53;;;;;;;0.30;0.30;;;;;;;33.07;19.67;101488.13;7389803;19;20021;-86
2024/01/10 03:39:20;;;;;;;0.20;0.20;;;;;;;33.29;19.67;101489.22;7393268;19;20022;-86
2024/01/10 03:41:47;;;;;;;1.00;0.30;;;;;;;33.98;19.41;101484.75;7390201;19;20106;-86
2024/01/10 03:44:13;;;;;;;0.95;0.80;;;;;;;33.68;19.43;101511.25;7392888;19;20027;-86
2024/01/10 03:46:39;;;;;;;0.60;0.60;;;;;;;33.54;19.14;101499.31;7391495;19;20364;-86
2024/01/10 03:49:05;;;;;;;0.68;0.43;;;;;;;33.51;19.16;101493.97;7390943;19;20019;-86
2024/01/10 03:51:31;;;;;;;4.25;1.38;;;;;;;33.70;19.49;101479.59;7390247;19;20010;-85
2024/01/10 03:53:57;;;;;;;1.38;0.43;;;;;;;33.93;19.20;101480.03;7395907;19;20111;-89
2024/01/10 03:56:24;;;;;;;0.98;0.85;;;;;;;33.99;18.89;101471.84;7391925;19;20011;-89
2024/01/10 03:58:50;;;;;;;0.68;0.52;;;;;;;33.97;19.24;101468.78;7394412;19;20034;-89
2024/01/10 04:01:17;;;;;;;0.60;0.60;;;;;;;33.75;19.11;101477.81;7392461;19;20046;-90
2024/01/10 04:03:44;;;;;;;3.97;1.48;;;;;;;27.22;22.52;101481.56;7396895;19;20010;-89
2024/01/10 04:06:10;;;;;;;0.38;0.38;;;;;;;26.17;23.43;101479.44;7392278;19;20495;-89
2024/01/10 04:08:36;;;;;;;0.50;0.40;;;;;;;26.24;23.85;101475.94;7393716;19;20038;-90
2024/01/10 04:11:03;;;;;;;0.57;0.32;;;;;;;26.37;23.51;101469.47;7392902;19;20014;-90
2024/01/10 04:13:29;;;;;;;1.65;0.85;;;;;;;26.08;23.62;101470.47;7395473;19;20014;-91
2024/01/10 04:15:55;;;;;;;0.38;0.38;;;;;;;25.63;24.50;101470.44;7393424;19;20014;-89
2024/01/10 04:18:21;;;;;;;1.63;1.23;;;;;;;25.76;24.05;101481.91;7393615;19;20017;-89
2024/01/10 04:20:49;;;;;;;4.28;0.90;;;;;;;25.73;24.20;101467.97;7392796;19;20017;-89
2024/01/10 04:23:15;;;;;;;0.82;0.60;;;;;;;25.64;24.63;101474.84;7394283;19;20350;-89
2024/01/10 04:25:41;;;;;;;1.02;0.70;;;;;;;25.76;24.31;101475.44;7391521;19;20086;-88
2024/01/10 04:28:07;;;;;;;5.45;1.48;;;;;;;27.15;23.40;101462.22;7391073;19;20022;-89
2024/01/10 04:30:33;;;;;;;2.35;1.00;;;;;;;26.24;23.81;101460.88;7389913;19;20047;-88
2024/01/10 04:32:59;;;;;;;0.10;0.10;;;;;;;25.96;24.03;101466.28;7390711;19;20017;-88
2024/01/10 04:35:25;;;;;;;1.23;0.52;;;;;;;26.29;24.10;101468.59;7391633;19;20014;-88
2024/01/10 04:37:52;;;;;;;0.20;0.10;;;;;;;25.69;24.67;101478.91;7391275;19;20018;-89
2024/01/10 04:40:18;;;;;;;2.88;1.15;;;;;;;25.69;24.87;101465.41;7391267;19;20078;-89
2024/01/10 04:42:44;;;;;;;1.33;1.17;;;;;;;25.64;24.43;101465.50;7389736;19;20471;-89
2024/01/10 04:45:10;;;;;;;0.90;0.85;;;;;;;25.48;24.45;101470.16;7390512;19;20026;-89
2024/01/10 04:47:36;;;;;;;0.20;0.20;;;;;;;25.54;24.64;101465.91;7390421;19;20021;-89
2024/01/10 04:50:02;;;;;;;0.13;0.13;;;;;;;25.77;24.52;101466.34;7390993;19;20093;-89
2024/01/10 04:52:29;;;;;;;5.45;0.70;;;;;;;24.47;25.52;101469.06;7391104;19;20018;-89
2024/01/10 04:54:55;;;;;;;1.48;0.63;;;;;;;23.40;26.80;101478.94;7396775;19;20333;-89
2024/01/10 04:57:21;;;;;;;1.75;0.63;;;;;;;23.43;26.78;101486.44;7390609;19;20078;-89
2024/01/10 04:59:47;;;;;;;1.02;0.63;;;;;;;27.49;23.91;101463.03;7392685;19;20026;-89
2024/01/10 05:02:13;;;;;;;1.83;1.13;;;;;;;29.65;22.46;101457.81;7390644;19;20011;-89
2024/01/10 05:04:39;;;;;;;1.45;0.80;;;;;;;29.12;22.82;101462.63;7395762;19;20362;-89
2024/01/10 05:07:05;;;;;;;0.50;0.50;;;;;;;28.63;22.94;101459.13;7391642;19;20166;-89
2024/01/10 05:09:31;;;;;;;0.30;0.30;;;;;;;28.12;23.00;101458.88;7391046;19;20488;-89
2024/01/10 05:11:57;;;;;;;0.50;0.45;;;;;;;28.84;22.89;101459.81;7389915;19;20014;-89
2024/01/10 05:14:24;;;;;;;1.27;1.00;;;;;;;28.01;23.32;101465.69;7392281;19;20360;-89
2024/01/10 05:16:50;;;;;;;1.83;1.00;;;;;;;27.84;23.43;101453.06;7388878;19;20029;-89
2024/01/10 05:19:16;;;;;;;1.92;1.08;;;;;;;28.00;23.30;101461.28;7392729;19;20430;-89
2024/01/10 05:21:42;;;;;;;0.35;0.35;;;;;;;28.35;23.33;101451.25;7389277;19;20019;-89
2024/01/10 05:24:08;;;;;;;3.05;1.15;;;;;;;28.28;22.97;101452.75;7393282;19;20047;-90
2024/01/10 05:26:35;;;;;;;4.15;1.30;;;;;;;27.50;23.82;101447.41;7391610;19;20023;-87
2024/01/10 05:29:01;;;;;;;1.45;0.75;;;;;;;27.28;23.92;101442.16;7392641;19;20011;-91
2024/01/10 05:31:27;;;;;;;0.60;0.45;;;;;;;27.29;24.23;101460.88;7390415;19;20011;-90
2024/01/10 05:33:54;;;;;;;0.40;0.40;;;;;;;27.23;24.42;101455.25;7395059;19;20040;-88
2024/01/10 05:36:23;;;;;;;0.65;0.25;;;;;;;29.17;22.87;101438.75;7389641;19;20014;-90
2024/01/10 05:38:50;;;;;;;0.70;0.60;;;;;;;27.85;23.69;101443.94;7392457;19;20018;-90
2024/01/10 05:41:16;;;;;;;0.50;0.50;;;;;;;28.29;23.21;101442.78;7389152;19;20027;-90
2024/01/10 05:43:43;;;;;;;3.92;0.45;;;;;;;27.37;23.99;101438.84;7390156;19;20114;-89
2024/01/10 05:46:10;;;;;;;5.00;1.13;;;;;;;27.23;23.75;101445.91;7394235;19;20031;-90
2024/01/10 05:48:36;;;;;;;0.15;0.15;;;;;;;25.95;24.95;101444.75;7395552;19;20042;-89
2024/01/10 05:51:03;;;;;;;2.35;1.20;;;;;;;25.10;26.07;101446.53;7395150;19;20408;-90
2024/01/10 05:53:29;;;;;;;0.40;0.35;;;;;;;26.26;24.95;101441.88;7395722;19;20015;-89
2024/01/10 05:55:55;;;;;;;1.98;0.82;;;;;;;27.84;23.75;101444.47;7395798;19;20062;-89
2024/01/10 05:58:21;;;;;;;2.72;1.35;;;;;;;28.56;23.68;101425.38;7399300;19;20022;-89
2024/01/10 06:00:47;;;;;;;0.40;0.40;;;;;;;27.40;24.34;101429.91;7400975;19;20010;-90
2024/01/10 06:03:13;;;;;;;0.35;0.35;;;;;;;28.20;23.99;101428.97;7401305;19;20010;-91
2024/01/10 06:05:40;;;;;;;0.73;0.55;;;;;;;28.89;23.40;101438.81;7401789;19;20006;-90
2024/01/10 06:08:06;;;;;;;2.20;0.65;;;;;;;30.44;22.89;101431.66;7396474;19;20366;-90
2024/01/10 06:10:32;;;;;;;0.70;0.70;;;;;;;27.14;24.50;101444.28;7395779;19;20039;-90
2024/01/10 06:12:58;;;;;;;1.73;0.60;;;;;;;25.62;25.84;101451.03;7393987;19;20015;-89
2024/01/10 06:15:25;;;;;;;0.45;0.45;;;;;;;25.20;26.16;101444.09;7397950;19;20014;-90
2024/01/10 06:17:51;;;;;;;1.70;0.88;;;;;;;27.35;24.77;101438.63;7395518;19;20014;-89
2024/01/10 06:20:18;;;;;;;0.65;0.65;;;;;;;24.35;27.19;101439.91;7395089;19;20010;-89
2024/01/10 06:22:46;;;;;;;0.45;0.45;;;;;;;27.39;24.67;101439.06;7392468;19;20083;-89
2024/01/10 06:25:12;;;;;;;0.30;0.30;;;;;;;23.78;27.70;101438.06;7398594;19;20018;-89
2024/01/10 06:27:39;;;;;;;0.60;0.50;;;;;;;24.64;27.46;101441.94;7400617;19;20018;-89
2024/01/10 06:30:07;;;;;;;0.20;0.20;;;;;;;32.53;22.16;101431.59;7400338;19;20018;-90
2024/01/10 06:32:33;;;;;;;0.30;0.30;;;;;;;33.44;21.21;101431.25;7398350;19;20350;-89
2024/01/10 06:35:01;;;;;;;0.75;0.75;;;;;;;33.99;20.92;101422.69;7398197;19;20013;-89
2024/01/10 06:37:28;;;;;;;1.55;0.95;;;;;;;34.12;21.11;101433.88;7392518;19;20018;-89
2024/01/10 06:39:54;;;;;;;0.75;0.75;;;;;;;34.17;20.82;101421.25;7392039;19;20023;-88
2024/01/10 06:42:20;;;;;;;0.47;0.45;;;;;;;32.77;21.28;101443.06;7394533;19;20022;-89
2024/01/10 06:44:46;;;;;;;0.35;0.35;;;;;;;31.86;21.77;101433.72;7396757;19;20006;-89
2024/01/10 06:47:14;;;;;;;1.27;0.65;;;;;;;30.42;22.49;101439.31;7395536;19;20091;-89
2024/01/10 06:49:40;;;;;;;2.75;0.57;;;;;;;28.10;24.31;101442.28;7394914;19;20021;-89
2024/01/10 06:52:07;;;;;;;0.63;0.63;;;;;;;28.03;24.56;101436.47;7394708;19;20464;-89
2024/01/10 06:54:35;;;;;;;3.38;0.52;;;;;;;28.16;24.50;101439.25;7396851;19;20041;-88
2024/01/10 06:57:01;;;;;;;1.30;0.55;;;;;;;28.11;24.34;101446.66;7392536;19;20428;-89
2024/01/10 06:59:27;;;;;;;0.60;0.52;;;;;;;28.18;24.26;101439.44;7395017;19;20018;-89
2024/01/10 07:01:55;;;;;;;0.10;0.10;;;;;;;28.23;24.56;101439.31;7393274;19;20021;-89
2024/01/10 07:04:23;;;;;;;0.60;0.40;;;;;;;28.38;24.35;101439.44;7394874;19;20011;-88
2024/01/10 07:06:50;;;;;;;0.20;0.20;;;;;;;29.26;23.65;101431.72;7392931;19;20010;-88
2024/01/10 07:09:19;;;;;;;0.25;0.25;;;;;;;29.52;23.72;101434.25;7393698;19;20018;-88
2024/01/10 07:11:47;;;;;;;0.38;0.30;;;;;;;29.60;23.58;101430.06;7393046;19;20015;-88
2024/01/10 07:14:14;;;;;;;0.55;0.55;;;;;;;29.57;23.55;101431.19;7396845;19;20010;-89
2024/01/10 07:16:42;;;;;;;0.70;0.70;;;;;;;29.54;23.50;101437.34;7394788;19;20476;-88
2024/01/10 07:19:12;;;;;;;1.33;0.25;;;;;;;29.47;23.28;101438.84;7395168;19;20075;-89
2024/01/10 07:21:42;;;;;;;0.50;0.47;;;;;;;29.39;23.36;101449.53;7393650;19;20018;-90
2024/01/10 07:24:09;;;;;;;0.20;0.20;;;;;;;29.29;23.65;101445.69;7395018;19;20023;-89
2024/01/10 07:26:36;;;;;;;0.20;0.20;;;;;;;29.23;23.74;101450.81;7394481;19;20472;-90
2024/01/10 07:29:02;;;;;;;0.68;0.50;;;;;;;28.49;23.95;101444.09;7395266;19;20102;-90
2024/01/10 07:31:29;;;;;;;1.25;1.15;;;;;;;27.94;24.13;101437.69;7392149;19;20044;-89
2024/01/10 07:33:56;;;;;;;0.82;0.73;;;;;;;27.86;24.72;101445.47;7391481;19;20021;-89
2024/01/10 07:36:29;;;;;;;0.77;0.77;;;;;;;27.70;24.53;101449.50;7392252;19;20397;-89
2024/01/10 07:38:57;;;;;;;0.60;0.55;;;;;;;28.75;24.06;101440.25;7393880;19;20014;-89
2024/01/10 07:41:23;;;;;;;0.50;0.50;;;;;;;27.30;24.90;101450.94;7391827;19;20018;-89
2024/01/10 07:43:49;;;;;;;2.25;0.25;;;;;;;27.49;24.88;101440.13;7391739;19;20010;-89
2024/01/10 07:46:15;;;;;;;3.25;0.52;;;;;;;27.48;25.06;101445.06;7393857;19;20114;-90
2024/01/10 07:48:41;;;;;;;0.28;0.28;;;;;;;28.75;24.38;101438.16;7394236;19;20480;-89
2024/01/10 07:51:07;;;;;;;1.27;1.05;;;;;;;27.71;24.80;101451.81;7392214;19;20025;-89
2024/01/10 07:53:34;;;;;;;0.60;0.60;;;;;;;27.47;25.10;101452.13;7391492;19;20014;-89
2024/01/10 07:56:00;;;;;;;1.08;0.73;;;;;;;29.41;24.14;101438.22;7396679;19;20019;-90
2024/01/10 07:58:27;;;;;;;1.40;0.30;;;;;;;29.29;23.89;101434.19;7392009;19;20014;-90
2024/01/10 08:00:54;;;;;;;1.20;0.68;;;;;;;30.92;22.81;101435.38;7391789;19;20010;-90
2024/01/10 08:03:20;;;;;;;3.40;0.30;;;;;;;30.49;23.36;101435.66;7395242;19;20486;-90
2024/01/10 08:05:46;;;;;;;3.05;0.55;;;;;;;30.29;23.36;101434.50;7394618;19;20019;-91
2024/01/10 08:08:13;;;;;;;0.32;0.20;;;;;;;30.81;23.10;101447.28;7391424;19;20025;-89
2024/01/10 08:10:40;;;;;;;2.15;0.50;;;;;;;30.06;23.38;101445.25;7393606;19;20026;-90
2024/01/10 08:13:06;;;;;;;0.10;0.10;;;;;;;28.96;23.97;101446.66;7393674;19;20015;-89
2024/01/10 08:15:34;;;;;;;0.40;0.30;;;;;;;28.95;23.99;101445.13;7395350;19;20010;-90
2024/01/10 08:18:03;;;;;;;0.20;0.20;;;;;;;30.15;23.35;101446.78;7393296;19;20006;-90
2024/01/10 08:20:29;;;;;;;1.65;0.63;;;;;;;28.14;24.42;101459.88;7391972;19;20014;-90
2024/01/10 08:22:55;;;;;;;0.50;0.50;;;;;;;27.63;25.32;101455.94;7389839;19;20119;-91
2024/01/10 08:25:22;;;;;;;0.93;0.85;;;;;;;27.49;25.43;101460.16;7395403;19;20039;-90
2024/01/10 08:27:48;;;;;;;2.05;0.88;;;;;;;28.13;24.71;101464.06;7391607;19;20026;-91
2024/01/10 08:30:15;;;;;;;5.20;0.47;;;;;;;27.86;25.15;101461.88;7391636;19;20014;-82
2024/01/10 08:32:41;;;;;;;0.40;0.40;;;;;;;29.46;23.73;101459.50;7391233;19;20014;-85
2024/01/10 08:35:10;;;;;;;3.15;0.98;;;;;;;31.21;22.92;101465.38;7392969;19;20412;-86
2024/01/10 08:37:37;;;;;;;0.77;0.20;;;;;;;31.59;22.69;101467.31;7389376;19;20019;-87
2024/01/10 08:40:09;;;;;;;1.10;0.90;;;;;;;29.53;24.12;101471.00;7389740;19;20021;-86
2024/01/10 08:42:35;;;;;;;0.50;0.30;;;;;;;31.24;23.10;101461.31;7387645;19;20014;-86
2024/01/10 08:45:02;;;;;;;1.80;0.60;;;;;;;31.56;22.53;101474.22;7390926;19;20010;-88
2024/01/10 08:47:31;;;;;;;0.73;0.32;;;;;;;31.38;22.82;101459.72;7388628;19;20456;-87
2024/01/10 08:49:57;;;;;;;0.98;0.82;;;;;;;31.36;22.96;101461.66;7388417;19;20383;-85
2024/01/10 08:52:23;;;;;;;1.25;0.52;;;;;;;31.71;22.87;101462.59;7388824;19;20022;-86
2024/01/10 08:54:49;;;;;;;4.47;1.05;;;;;;;31.63;23.00;101464.78;7389638;19;20018;-85
2024/01/10 08:57:15;;;;;;;0.32;0.30;;;;;;;30.97;22.88;101466.03;7385024;19;20010;-84
2024/01/10 08:59:42;;;;;;;0.65;0.47;;;;;;;29.28;24.18;101467.13;7390146;19;20042;-84
2024/01/10 09:02:08;;;;;;;0.30;0.22;;;;;;;31.14;22.93;101457.53;7388092;19;20018;-84
2024/01/10 09:04:34;;;;;;;1.33;0.50;;;;;;;32.87;21.90;101461.22;7389643;19;20018;-83
2024/01/10 09:07:01;;;;;;;0.30;0.15;;;;;;;29.71;24.17;101475.66;7388230;19;20015;-83
2024/01/10 09:09:27;;;;;;;0.68;0.55;;;;;;;30.25;23.84;101473.63;7388095;19;20018;-83
2024/01/10 09:11:53;;;;;;;0.17;0.15;;;;;;;30.27;23.84;101473.81;7385828;19;20093;-83
2024/01/10 09:14:20;;;;;;;0.17;0.17;;;;;;;29.86;24.08;101469.19;7388177;19;20021;-83
2024/01/10 09:16:46;;;;;;;1.23;0.88;;;;;;;29.77;24.27;101470.53;7387211;19;20027;-83
2024/01/10 09:19:12;;;;;;;0.10;0.10;;;;;;;30.14;24.06;101477.63;7391547;19;20022;-84
2024/01/10 09:21:38;;;;;;;0.45;0.20;;;;;;;29.96;24.08;101484.50;7393434;19;20515;-83
2024/01/10 09:24:08;;;;;;;1.98;0.45;;;;;;;29.47;24.29;101484.78;7394594;19;20638;-86
2024/01/10 09:26:35;;;;;;;4.13;0.63;;;;;;;27.52;25.77;101484.81;7395552;19;20019;-84
2024/01/10 09:29:01;;;;;;;2.80;0.65;;;;;;;28.46;25.14;101486.09;7397074;19;20018;-85
2024/01/10 09:31:27;;;;;;;0.80;0.75;;;;;;;28.74;24.91;101484.59;7393222;19;20032;-84
2024/01/10 09:33:53;;;;;;;0.30;0.30;;;;;;;29.92;23.99;101484.91;7398717;19;20491;-83
2024/01/10 09:36:19;;;;;;;1.75;0.38;;;;;;;29.43;24.97;101490.13;7395901;19;20044;-84
2024/01/10 09:38:45;;;;;;;0.85;0.82;;;;;;;31.17;23.51;101485.16;7393686;19;20050;-84
2024/01/10 09:41:13;;;;;;;0.90;0.57;;;;;;;31.78;23.45;101500.03;7395150;19;20022;-83
2024/01/10 09:43:39;;;;;;;0.90;0.55;;;;;;;32.03;23.07;101489.31;7394377;19;20031;-84
2024/01/10 09:46:07;;;;;;;0.50;0.50;;;;;;;32.50;22.64;101493.38;7397283;19;20021;-83
2024/01/10 09:48:33;;;;;;;0.65;0.52;;;;;;;33.87;21.88;101491.13;7393503;19;20023;-83
2024/01/10 09:50:59;;;;;;;0.10;0.10;;;;;;;34.18;21.28;101485.63;7394586;19;20035;-82
2024/01/10 09:53:27;;;;;;;4.65;0.43;;;;;;;34.25;21.35;101484.75;7395659;19;20007;-83
2024/01/10 09:55:56;;;;;;;0.13;0.05;;;;;;;34.41;21.31;101485.25;7396492;19;20021;-84
2024/01/10 09:58:24;;;;;;;1.88;0.47;;;;;;;34.35;21.50;101482.63;7395116;19;20026;-85
2024/01/10 10:00:51;;;;;;;0.20;0.20;;;;;;;34.54;20.95;101487.75;7394754;19;20023;-85
2024/01/10 10:03:19;;;;;;;1.75;0.80;;;;;;;34.74;21.05;101480.63;7395965;19;20433;-85
2024/01/10 10:05:45;;;;;;;0.40;0.40;;;;;;;34.44;21.12;101484.78;7397397;19;20029;-85
2024/01/10 10:08:21;;;;;;;0.50;0.50;;;;;;;34.61;20.86;101481.06;7395007;19;20025;-85
2024/01/10 10:10:51;;;;;;;1.27;1.00;;;;;;;34.75;20.75;101482.13;7394130;19;20094;-86
2024/01/10 10:13:30;;;;;;;1.15;0.52;;;;;;;34.71;20.70;101481.81;7393689;19;20015;-85
2024/01/10 10:16:03;;;;;;;0.85;0.47;;;;;;;34.63;20.85;101479.06;7399096;19;20010;-85
2024/01/10 10:18:31;;;;;;;0.85;0.38;;;;;;;34.11;21.19;101475.72;7394739;19;20018;-86
2024/01/10 10:21:09;;;;;;;0.25;0.25;;;;;;;34.60;21.35;101476.63;7394722;19;20034;-85
2024/01/10 10:23:37;;;;;;;1.38;0.68;;;;;;;34.24;21.30;101481.09;7394432;19;20382;-85
2024/01/10 10:26:20;;;;;;;0.55;0.55;;;;;;;34.16;21.25;101476.78;7396018;19;20018;-86
2024/01/10 10:28:47;;;;;;;3.83;0.77;;;;;;;34.44;21.02;101478.25;7393940;19;20017;-88
2024/01/10 10:31:15;;;;;;;0.20;0.10;;;;;;;31.20;23.00;101475.38;7390500;19;20087;-87
2024/01/10 10:33:43;;;;;;;4.03;0.73;;;;;;;30.27;23.44;101480.31;7397750;19;20018;-86
2024/01/10 10:36:09;;;;;;;0.10;0.10;;;;;;;28.37;25.09;101477.25;7395838;19;20668;-86
2024/01/10 10:38:38;;;;;;;1.75;1.17;;;;;;;28.27;25.46;101485.56;7394192;19;20029;-86
2024/01/10 10:41:07;;;;;;;0.35;0.35;;;;;;;26.15;26.81;101481.31;7393601;19;20334;-85
2024/01/10 10:43:37;;;;;;;0.73;0.73;;;;;;;32.06;23.19;101472.94;7394066;19;20508;-89
2024/01/10 10:46:14;;;;;;;0.93;0.35;;;;;;;34.15;21.46;101469.50;7396214;19;20367;-87
2024/01/10 10:48:40;;;;;;;4.00;0.47;;;;;;;34.06;21.89;101473.13;7393189;19;20118;-86
2024/01/10 10:51:18;;;;;;;0.73;0.20;;;;;;;34.58;21.27;101459.09;7394025;19;20018;-84
2024/01/10 10:53:45;;;;;;;0.63;0.30;;;;;;;34.29;21.35;101464.81;7394748;19;20015;-89
2024/01/10 10:56:12;;;;;;;1.95;0.50;;;;;;;34.41;21.16;101470.78;7397094;19;20056;-89
2024/01/10 10:58:40;;;;;;;0.93;0.57;;;;;;;34.03;21.67;101462.75;7393772;19;20022;-87
2024/01/10 11:01:09;;;;;;;0.20;0.20;;;;;;;29.91;24.01;101471.09;7393580;19;20015;-83
2024/01/10 11:03:37;;;;;;;2.15;0.43;;;;;;;28.72;24.59;101472.94;7396911;19;20018;-86
2024/01/10 11:06:04;;;;;;;0.35;0.35;;;;;;;28.42;25.28;101470.59;7396609;19;20049;-86
2024/01/10 11:08:35;;;;;;;1.27;0.68;;;;;;;29.68;24.81;101465.31;7394049;19;20257;-87
2024/01/10 11:11:03;;;;;;;;;;;;;;;31.48;23.00;101462.00;7391514;19;20042;-83
2024/01/10 11:13:51;;;;;;;0.20;0.10;;;;;;;32.68;22.71;101455.28;7389692;19;19933;-83
2024/01/10 11:16:55;;;;;;;0.20;0.20;;;;;;;31.54;23.03;101457.53;7394542;19;20041;-84
2024/01/10 11:19:39;;;;;;;0.63;0.30;;;;;;;32.16;22.75;101459.44;7392946;19;20018;-83
2024/01/10 11:22:42;;;;;;;0.50;0.50;;;;;;;32.47;22.86;101452.03;7391876;19;20085;-84
2024/01/10 11:25:09;;;;;;;1.27;0.55;;;;;;;32.22;22.68;101448.41;7391844;19;20014;-84